Crateus, Brazil
Current Conditions -  °F | °C
As of 5:00 PM on Sunday 21 Dec 2014 (Local Time) from SBTE Reporting Station
Few Clouds Few Clouds  
Wind Chill: 99°   Ceiling: Unl
Heat Index: 99°   Visibility: 6mi
Dew Point: 61°   Wind: 8mph
Humidity: 29%   Direction: 150°SSE
Pressure: 29.74"   Gusts: NA
Location:  5.18°S, 40.68°W
Report Text: SBTE 212000Z 15007KT 9999 FEW030 37/16 Q1007
Loading
Personal Weather Stations






























Interactive Weather Map New forecast layout! Learn more

10-Day Weather Forecast

Advertisements
Track Severe Weather on mobile